CheckWX is a tool to help pilots better visualize weather data.  It is not intended as a substitute for an official pre-flight weather briefing.

13:56:45 UTC

KSME METAR
Lake Cumberland Regional Airport
Somerset, Kentucky, USA
Current

22 mins ago

KSME 261335Z AUTO 28011G22KT 10SM -DZ OVC014 12/10 A2976 RMK AO2
Observed
Apr-26 @ 13:35 UTC
Wind
  • 280° at 11 KTS
  • Gusting to 22 KTS
Visibility
10 SM
Flight Rules
MVFR
Conditions
Light Drizzle
Cloud Levels
  • Overcast at 1,400' AGL
Temperature
12°C / 54°F
Dewpoint
10°C / 50°F
Humidity
88%
Altimeter
29.76" Hg
Pressure
1007.82 hPa
Previous

42 mins ago

KSME 261315Z AUTO 27014G25KT 10SM -RA OVC014 12/11 A2974 RMK AO2
Observed
Apr-26 @ 13:15 UTC
Wind
  • 270° at 14 KTS
  • Gusting to 25 KTS
Visibility
10 SM
Flight Rules
MVFR
Conditions
Light Rain
Cloud Levels
  • Overcast at 1,400' AGL
Temperature
12°C / 54°F
Dewpoint
11°C / 52°F
Humidity
94%
Altimeter
29.74" Hg
Pressure
1007.12 hPa
Previous

1 hour ago

KSME 261255Z AUTO 25010G19KT 7SM BKN014 OVC019 13/12 A2972 RMK AO2
Observed
Apr-26 @ 12:55 UTC
Wind
  • 250° at 10 KTS
  • Gusting to 19 KTS
Visibility
7 SM
Flight Rules
MVFR
Cloud Levels
  • Broken at 1,400' AGL
  • Overcast at 1,900' AGL
Temperature
13°C / 55°F
Dewpoint
12°C / 54°F
Humidity
94%
Altimeter
29.72" Hg
Pressure
1006.42 hPa